sensor_id;sensor_type;location;lat;lon;timestamp;pressure;altitude;pressure_sealevel;temperature;humidity
71772;BME280;59606;52.138;5.424;2024-02-28T00:00:05;102107.47;;;2.90;100.00
71772;BME280;59606;52.138;5.424;2024-02-28T00:02:32;102102.31;;;2.90;100.00
71772;BME280;59606;52.138;5.424;2024-02-28T00:04:58;102114.34;;;2.88;100.00
71772;BME280;59606;52.138;5.424;2024-02-28T00:07:25;102111.78;;;2.86;100.00
71772;BME280;59606;52.138;5.424;2024-02-28T00:09:52;102116.91;;;2.84;100.00
71772;BME280;59606;52.138;5.424;2024-02-28T00:12:18;102112.66;;;2.82;100.00
71772;BME280;59606;52.138;5.424;2024-02-28T00:14:45;102110.94;;;2.79;100.00
71772;BME280;59606;52.138;5.424;2024-02-28T00:17:12;102110.91;;;2.75;100.00
71772;BME280;59606;52.138;5.424;2024-02-28T00:19:39;102113.53;;;2.72;100.00
71772;BME280;59606;52.138;5.424;2024-02-28T00:22:06;102112.66;;;2.68;100.00
71772;BME280;59606;52.138;5.424;2024-02-28T00:24:32;102116.09;;;2.66;100.00
71772;BME280;59606;52.138;5.424;2024-02-28T00:26:59;102116.09;;;2.63;100.00
71772;BME280;59606;52.138;5.424;2024-02-28T00:29:25;102113.53;;;2.61;100.00
71772;BME280;59606;52.138;5.424;2024-02-28T00:31:53;102113.53;;;2.58;100.00
71772;BME280;59606;52.138;5.424;2024-02-28T00:34:19;102110.97;;;2.55;100.00
71772;BME280;59606;52.138;5.424;2024-02-28T00:36:46;102107.53;;;2.53;100.00
71772;BME280;59606;52.138;5.424;2024-02-28T00:39:21;102110.13;;;2.48;100.00
71772;BME280;59606;52.138;5.424;2024-02-28T00:41:48;102111.81;;;2.45;100.00
71772;BME280;59606;52.138;5.424;2024-02-28T00:44:15;102109.25;;;2.40;100.00
71772;BME280;59606;52.138;5.424;2024-02-28T00:46:41;102116.97;;;2.34;100.00
71772;BME280;59606;52.138;5.424;2024-02-28T00:49:08;102113.53;;;2.30;100.00
71772;BME280;59606;52.138;5.424;2024-02-28T00:51:34;102109.28;;;2.26;100.00
71772;BME280;59606;52.138;5.424;2024-02-28T00:54:03;102114.44;;;2.25;100.00
71772;BME280;59606;52.138;5.424;2024-02-28T00:56:30;102111.84;;;2.23;100.00
71772;BME280;59606;52.138;5.424;2024-02-28T00:58:57;102104.97;;;2.21;100.00
71772;BME280;59606;52.138;5.424;2024-02-28T01:01:23;102109.25;;;2.20;100.00
71772;BME280;59606;52.138;5.424;2024-02-28T01:03:50;102101.56;;;2.16;100.00
71772;BME280;59606;52.138;5.424;2024-02-28T01:06:16;102108.41;;;2.13;100.00
71772;BME280;59606;52.138;5.424;2024-02-28T01:08:43;102105.81;;;2.10;100.00
71772;BME280;59606;52.138;5.424;2024-02-28T01:11:10;102105.84;;;2.09;100.00
71772;BME280;59606;52.138;5.424;2024-02-28T01:13:37;102101.56;;;2.05;100.00
71772;BME280;59606;52.138;5.424;2024-02-28T01:16:03;102097.28;;;2.02;100.00
71772;BME280;59606;52.138;5.424;2024-02-28T01:18:30;102105.84;;;2.03;100.00
71772;BME280;59606;52.138;5.424;2024-02-28T01:21:00;102100.69;;;2.01;100.00
71772;BME280;59606;52.138;5.424;2024-02-28T01:23:26;102099.84;;;1.99;100.00
71772;BME280;59606;52.138;5.424;2024-02-28T01:25:53;102106.66;;;1.97;100.00
71772;BME280;59606;52.138;5.424;2024-02-28T01:28:19;102104.09;;;1.94;100.00
71772;BME280;59606;52.138;5.424;2024-02-28T01:30:46;102103.25;;;1.92;100.00
71772;BME280;59606;52.138;5.424;2024-02-28T01:33:13;102099.81;;;1.85;100.00
71772;BME280;59606;52.138;5.424;2024-02-28T01:35:42;102099.81;;;1.85;100.00
71772;BME280;59606;52.138;5.424;2024-02-28T01:38:11;102098.94;;;1.86;100.00
71772;BME280;59606;52.138;5.424;2024-02-28T01:40:38;102096.38;;;1.86;100.00
71772;BME280;59606;52.138;5.424;2024-02-28T01:43:08;102096.41;;;1.88;100.00
71772;BME280;59606;52.138;5.424;2024-02-28T01:45:34;102092.13;;;1.88;100.00
71772;BME280;59606;52.138;5.424;2024-02-28T01:48:02;102092.94;;;1.87;100.00
71772;BME280;59606;52.138;5.424;2024-02-28T01:50:29;102101.53;;;1.91;100.00
71772;BME280;59606;52.138;5.424;2024-02-28T01:52:56;102097.25;;;1.88;100.00
71772;BME280;59606;52.138;5.424;2024-02-28T01:55:22;102096.41;;;1.89;100.00
71772;BME280;59606;52.138;5.424;2024-02-28T01:57:49;102095.53;;;1.86;100.00
71772;BME280;59606;52.138;5.424;2024-02-28T02:00:17;102084.38;;;1.84;100.00
71772;BME280;59606;52.138;5.424;2024-02-28T02:02:44;102096.38;;;1.86;100.00
71772;BME280;59606;52.138;5.424;2024-02-28T02:05:10;102088.66;;;1.83;100.00
71772;BME280;59606;52.138;5.424;2024-02-28T02:07:37;102107.53;;;1.82;100.00
71772;BME280;59606;52.138;5.424;2024-02-28T02:10:06;102099.81;;;1.84;100.00
71772;BME280;59606;52.138;5.424;2024-02-28T02:12:35;102106.66;;;1.83;100.00
71772;BME280;59606;52.138;5.424;2024-02-28T02:15:04;102099.81;;;1.82;100.00
71772;BME280;59606;52.138;5.424;2024-02-28T02:17:31;102100.66;;;1.80;100.00
71772;BME280;59606;52.138;5.424;2024-02-28T02:19:58;102103.22;;;1.83;100.00
71772;BME280;59606;52.138;5.424;2024-02-28T02:22:27;102106.69;;;1.85;100.00
71772;BME280;59606;52.138;5.424;2024-02-28T02:24:56;102101.53;;;1.85;100.00
71772;BME280;59606;52.138;5.424;2024-02-28T02:27:24;102096.38;;;1.83;100.00
71772;BME280;59606;52.138;5.424;2024-02-28T02:29:51;102100.66;;;1.87;100.00
71772;BME280;59606;52.138;5.424;2024-02-28T02:32:18;102104.09;;;1.85;100.00
71772;BME280;59606;52.138;5.424;2024-02-28T02:34:44;102104.09;;;1.86;100.00
71772;BME280;59606;52.138;5.424;2024-02-28T02:37:12;102097.25;;;1.85;100.00
71772;BME280;59606;52.138;5.424;2024-02-28T02:39:38;102098.94;;;1.86;100.00
71772;BME280;59606;52.138;5.424;2024-02-28T02:42:05;102096.38;;;1.79;100.00
71772;BME280;59606;52.138;5.424;2024-02-28T02:44:33;102104.09;;;1.83;100.00
71772;BME280;59606;52.138;5.424;2024-02-28T02:47:00;102098.94;;;1.83;100.00
71772;BME280;59606;52.138;5.424;2024-02-28T02:49:26;102087.81;;;1.83;100.00
71772;BME280;59606;52.138;5.424;2024-02-28T02:51:53;102092.09;;;1.84;100.00
71772;BME280;59606;52.138;5.424;2024-02-28T02:54:19;102086.94;;;1.84;100.00
71772;BME280;59606;52.138;5.424;2024-02-28T02:56:46;102085.22;;;1.84;100.00
71772;BME280;59606;52.138;5.424;2024-02-28T02:59:13;102100.66;;;1.87;100.00
71772;BME280;59606;52.138;5.424;2024-02-28T03:01:40;102093.81;;;1.86;100.00
71772;BME280;59606;52.138;5.424;2024-02-28T03:04:07;102101.53;;;1.86;100.00
71772;BME280;59606;52.138;5.424;2024-02-28T03:06:33;102098.97;;;1.82;100.00
71772;BME280;59606;52.138;5.424;2024-02-28T03:09:00;102098.94;;;1.83;100.00
71772;BME280;59606;52.138;5.424;2024-02-28T03:11:26;102093.81;;;1.82;100.00
71772;BME280;59606;52.138;5.424;2024-02-28T03:13:53;102087.84;;;1.81;100.00
71772;BME280;59606;52.138;5.424;2024-02-28T03:16:20;102087.84;;;1.81;100.00
71772;BME280;59606;52.138;5.424;2024-02-28T03:18:46;102085.25;;;1.81;100.00
71772;BME280;59606;52.138;5.424;2024-02-28T03:21:13;102077.53;;;1.80;100.00
71772;BME280;59606;52.138;5.424;2024-02-28T03:23:40;102063.81;;;1.76;100.00
71772;BME280;59606;52.138;5.424;2024-02-28T03:26:06;102077.56;;;1.81;100.00
71772;BME280;59606;52.138;5.424;2024-02-28T03:28:33;102074.97;;;1.81;100.00
71772;BME280;59606;52.138;5.424;2024-02-28T03:31:00;102079.25;;;1.81;100.00
71772;BME280;59606;52.138;5.424;2024-02-28T03:33:26;102078.41;;;1.85;100.00
71772;BME280;59606;52.138;5.424;2024-02-28T03:35:53;102084.38;;;1.84;100.00
71772;BME280;59606;52.138;5.424;2024-02-28T03:38:19;102084.41;;;1.82;100.00
71772;BME280;59606;52.138;5.424;2024-02-28T03:40:46;102095.53;;;1.87;100.00
71772;BME280;59606;52.138;5.424;2024-02-28T03:43:14;102083.53;;;1.86;100.00
71772;BME280;59606;52.138;5.424;2024-02-28T03:45:40;102079.28;;;1.88;100.00
71772;BME280;59606;52.138;5.424;2024-02-28T03:48:07;102084.41;;;1.90;100.00
71772;BME280;59606;52.138;5.424;2024-02-28T03:50:34;102086.09;;;1.94;100.00
71772;BME280;59606;52.138;5.424;2024-02-28T03:53:00;102089.53;;;1.96;100.00
71772;BME280;59606;52.138;5.424;2024-02-28T03:55:27;102081.84;;;1.95;100.00
71772;BME280;59606;52.138;5.424;2024-02-28T03:57:53;102075.84;;;1.97;100.00
71772;BME280;59606;52.138;5.424;2024-02-28T04:00:20;102075.84;;;1.97;100.00
71772;BME280;59606;52.138;5.424;2024-02-28T04:02:46;102078.41;;;2.00;100.00
71772;BME280;59606;52.138;5.424;2024-02-28T04:05:13;102078.41;;;1.99;100.00
71772;BME280;59606;52.138;5.424;2024-02-28T04:07:40;102088.69;;;2.03;100.00
71772;BME280;59606;52.138;5.424;2024-02-28T04:10:07;102087.84;;;2.01;100.00
71772;BME280;59606;52.138;5.424;2024-02-28T04:12:34;102091.28;;;2.02;100.00
71772;BME280;59606;52.138;5.424;2024-02-28T04:15:00;102085.28;;;2.03;100.00
71772;BME280;59606;52.138;5.424;2024-02-28T04:17:27;102086.97;;;2.07;100.00
71772;BME280;59606;52.138;5.424;2024-02-28T04:19:54;102094.69;;;2.10;100.00
71772;BME280;59606;52.138;5.424;2024-02-28T04:22:20;102101.53;;;2.11;100.00
71772;BME280;59606;52.138;5.424;2024-02-28T04:24:47;102089.56;;;2.11;100.00
71772;BME280;59606;52.138;5.424;2024-02-28T04:27:13;102095.56;;;2.12;100.00
71772;BME280;59606;52.138;5.424;2024-02-28T04:29:40;102091.25;;;2.11;100.00
71772;BME280;59606;52.138;5.424;2024-02-28T04:32:07;102092.13;;;2.16;100.00
71772;BME280;59606;52.138;5.424;2024-02-28T04:34:33;102086.13;;;2.14;100.00
71772;BME280;59606;52.138;5.424;2024-02-28T04:37:00;102084.44;;;2.11;100.00
71772;BME280;59606;52.138;5.424;2024-02-28T04:39:27;102081.84;;;2.13;100.00
71772;BME280;59606;52.138;5.424;2024-02-28T04:41:53;102081.84;;;2.16;100.00
71772;BME280;59606;52.138;5.424;2024-02-28T04:44:20;102087.84;;;2.20;100.00
71772;BME280;59606;52.138;5.424;2024-02-28T04:46:46;102089.56;;;2.19;100.00
71772;BME280;59606;52.138;5.424;2024-02-28T04:49:13;102096.41;;;2.19;100.00
71772;BME280;59606;52.138;5.424;2024-02-28T04:51:39;102102.41;;;2.21;100.00
71772;BME280;59606;52.138;5.424;2024-02-28T04:54:06;102114.41;;;2.23;100.00
71772;BME280;59606;52.138;5.424;2024-02-28T04:56:32;102109.28;;;2.22;100.00
71772;BME280;59606;52.138;5.424;2024-02-28T04:58:59;102116.13;;;2.23;100.00
71772;BME280;59606;52.138;5.424;2024-02-28T05:01:26;102112.69;;;2.27;100.00
71772;BME280;59606;52.138;5.424;2024-02-28T05:03:54;102120.41;;;2.27;100.00
71772;BME280;59606;52.138;5.424;2024-02-28T05:06:22;102110.97;;;2.24;100.00
71772;BME280;59606;52.138;5.424;2024-02-28T05:08:48;102116.97;;;2.26;100.00
71772;BME280;59606;52.138;5.424;2024-02-28T05:11:15;102117.84;;;2.28;100.00
71772;BME280;59606;52.138;5.424;2024-02-28T05:13:42;102119.56;;;2.29;100.00
71772;BME280;59606;52.138;5.424;2024-02-28T05:16:18;102118.69;;;2.30;100.00
71772;BME280;59606;52.138;5.424;2024-02-28T05:18:45;102112.72;;;2.31;100.00
71772;BME280;59606;52.138;5.424;2024-02-28T05:21:12;102111.00;;;2.32;100.00
71772;BME280;59606;52.138;5.424;2024-02-28T05:23:39;102121.28;;;2.35;100.00
71772;BME280;59606;52.138;5.424;2024-02-28T05:26:06;102121.28;;;2.36;100.00
71772;BME280;59606;52.138;5.424;2024-02-28T05:28:33;102116.97;;;2.37;100.00
71772;BME280;59606;52.138;5.424;2024-02-28T05:31:24;102117.84;;;2.39;100.00
71772;BME280;59606;52.138;5.424;2024-02-28T05:33:51;102118.69;;;2.43;100.00
71772;BME280;59606;52.138;5.424;2024-02-28T05:36:19;102116.97;;;2.43;100.00
71772;BME280;59606;52.138;5.424;2024-02-28T05:38:48;102122.13;;;2.46;100.00
71772;BME280;59606;52.138;5.424;2024-02-28T05:41:19;102112.69;;;2.47;100.00
71772;BME280;59606;52.138;5.424;2024-02-28T05:43:46;102110.97;;;2.46;100.00
71772;BME280;59606;52.138;5.424;2024-02-28T05:46:14;102113.53;;;2.50;100.00
71772;BME280;59606;52.138;5.424;2024-02-28T05:48:42;102110.97;;;2.52;100.00
71772;BME280;59606;52.138;5.424;2024-02-28T05:51:10;102110.09;;;2.54;100.00
71772;BME280;59606;52.138;5.424;2024-02-28T05:53:40;102112.69;;;2.56;100.00
71772;BME280;59606;52.138;5.424;2024-02-28T05:56:07;102114.41;;;2.58;100.00
71772;BME280;59606;52.138;5.424;2024-02-28T05:58:41;102107.53;;;2.59;100.00
71772;BME280;59606;52.138;5.424;2024-02-28T06:01:08;102113.53;;;2.59;100.00
71772;BME280;59606;52.138;5.424;2024-02-28T06:03:39;102115.25;;;2.62;100.00
71772;BME280;59606;52.138;5.424;2024-02-28T06:06:05;102121.25;;;2.63;100.00
71772;BME280;59606;52.138;5.424;2024-02-28T06:08:33;102121.25;;;2.66;100.00
71772;BME280;59606;52.138;5.424;2024-02-28T06:11:02;102118.66;;;2.67;100.00
71772;BME280;59606;52.138;5.424;2024-02-28T06:13:29;102114.38;;;2.68;100.00
71772;BME280;59606;52.138;5.424;2024-02-28T06:15:56;102115.22;;;2.68;100.00
71772;BME280;59606;52.138;5.424;2024-02-28T06:18:31;102114.38;;;2.68;100.00
71772;BME280;59606;52.138;5.424;2024-02-28T06:21:03;102113.50;;;2.70;100.00
71772;BME280;59606;52.138;5.424;2024-02-28T06:26:38;102122.97;;;2.70;100.00
71772;BME280;59606;52.138;5.424;2024-02-28T06:29:04;102134.09;;;2.76;100.00
71772;BME280;59606;52.138;5.424;2024-02-28T06:31:32;102126.34;;;2.75;100.00
71772;BME280;59606;52.138;5.424;2024-02-28T06:33:59;102126.38;;;2.76;100.00
71772;BME280;59606;52.138;5.424;2024-02-28T06:36:26;102134.94;;;2.77;100.00
71772;BME280;59606;52.138;5.424;2024-02-28T06:38:52;102131.50;;;2.78;100.00
71772;BME280;59606;52.138;5.424;2024-02-28T06:41:19;102130.66;;;2.79;100.00
71772;BME280;59606;52.138;5.424;2024-02-28T06:43:46;102140.09;;;2.83;100.00
71772;BME280;59606;52.138;5.424;2024-02-28T06:46:13;102138.38;;;2.83;100.00
71772;BME280;59606;52.138;5.424;2024-02-28T06:48:39;102150.38;;;2.84;100.00
71772;BME280;59606;52.138;5.424;2024-02-28T06:51:08;102150.38;;;2.89;100.00
71772;BME280;59606;52.138;5.424;2024-02-28T06:53:35;102162.38;;;2.90;100.00
71772;BME280;59606;52.138;5.424;2024-02-28T06:56:02;102154.63;;;2.92;100.00
71772;BME280;59606;52.138;5.424;2024-02-28T06:58:29;102168.38;;;2.94;100.00
71772;BME280;59606;52.138;5.424;2024-02-28T07:00:56;102176.13;;;2.95;100.00
71772;BME280;59606;52.138;5.424;2024-02-28T07:03:28;102175.22;;;2.98;100.00
71772;BME280;59606;52.138;5.424;2024-02-28T07:06:04;102180.38;;;2.98;100.00
71772;BME280;59606;52.138;5.424;2024-02-28T07:08:33;102186.38;;;3.03;100.00
71772;BME280;59606;52.138;5.424;2024-02-28T07:11:01;102185.53;;;3.04;100.00
71772;BME280;59606;52.138;5.424;2024-02-28T07:13:32;102181.22;;;3.06;100.00
71772;BME280;59606;52.138;5.424;2024-02-28T07:16:09;102177.81;;;3.05;100.00
71772;BME280;59606;52.138;5.424;2024-02-28T07:18:36;102182.94;;;3.07;100.00
71772;BME280;59606;52.138;5.424;2024-02-28T07:21:03;102182.06;;;3.11;100.00
71772;BME280;59606;52.138;5.424;2024-02-28T07:23:29;102186.34;;;3.11;100.00
71772;BME280;59606;52.138;5.424;2024-02-28T07:25:56;102191.53;;;3.12;100.00
71772;BME280;59606;52.138;5.424;2024-02-28T07:28:45;102199.22;;;3.15;100.00
71772;BME280;59606;52.138;5.424;2024-02-28T07:31:16;102191.47;;;3.18;100.00
71772;BME280;59606;52.138;5.424;2024-02-28T07:33:43;102194.94;;;3.19;100.00
71772;BME280;59606;52.138;5.424;2024-02-28T07:36:09;102202.66;;;3.20;100.00
71772;BME280;59606;52.138;5.424;2024-02-28T07:38:36;102198.38;;;3.22;100.00
71772;BME280;59606;52.138;5.424;2024-02-28T07:41:07;102206.09;;;3.22;100.00
71772;BME280;59606;52.138;5.424;2024-02-28T07:43:34;102204.34;;;3.24;100.00
71772;BME280;59606;52.138;5.424;2024-02-28T07:46:08;102213.78;;;3.28;100.00
71772;BME280;59606;52.138;5.424;2024-02-28T07:48:36;102212.06;;;3.30;100.00
71772;BME280;59606;52.138;5.424;2024-02-28T07:51:06;102210.34;;;3.33;100.00
71772;BME280;59606;52.138;5.424;2024-02-28T07:53:34;102212.03;;;3.35;100.00
71772;BME280;59606;52.138;5.424;2024-02-28T07:56:02;102221.50;;;3.39;100.00
71772;BME280;59606;52.138;5.424;2024-02-28T07:58:29;102221.50;;;3.42;100.00
71772;BME280;59606;52.138;5.424;2024-02-28T08:00:57;102212.88;;;3.45;100.00
71772;BME280;59606;52.138;5.424;2024-02-28T08:03:24;102212.03;;;3.46;100.00
71772;BME280;59606;52.138;5.424;2024-02-28T08:05:53;102221.44;;;3.48;100.00
71772;BME280;59606;52.138;5.424;2024-02-28T08:08:25;102230.03;;;3.50;100.00
71772;BME280;59606;52.138;5.424;2024-02-28T08:10:52;102232.59;;;3.52;100.00
71772;BME280;59606;52.138;5.424;2024-02-28T08:13:28;102236.06;;;3.52;100.00
71772;BME280;59606;52.138;5.424;2024-02-28T08:15:56;102229.16;;;3.54;100.00
71772;BME280;59606;52.138;5.424;2024-02-28T08:18:24;102233.47;;;3.57;100.00
71772;BME280;59606;52.138;5.424;2024-02-28T08:20:51;102229.16;;;3.59;100.00
71772;BME280;59606;52.138;5.424;2024-02-28T08:23:22;102228.28;;;3.62;100.00
71772;BME280;59606;52.138;5.424;2024-02-28T08:25:50;102235.16;;;3.66;100.00
71772;BME280;59606;52.138;5.424;2024-02-28T08:28:31;102242.84;;;3.69;100.00
71772;BME280;59606;52.138;5.424;2024-02-28T08:31:08;102248.03;;;3.70;100.00
71772;BME280;59606;52.138;5.424;2024-02-28T08:33:34;102237.69;;;3.72;100.00
71772;BME280;59606;52.138;5.424;2024-02-28T08:36:03;102246.25;;;3.75;100.00
71772;BME280;59606;52.138;5.424;2024-02-28T08:38:30;102253.97;;;3.78;100.00
71772;BME280;59606;52.138;5.424;2024-02-28T08:40:57;102249.69;;;3.81;100.00
71772;BME280;59606;52.138;5.424;2024-02-28T08:43:31;102253.97;;;3.86;100.00
71772;BME280;59606;52.138;5.424;2024-02-28T08:46:07;102252.22;;;3.91;100.00
71772;BME280;59606;52.138;5.424;2024-02-28T08:48:34;102254.78;;;3.94;100.00
71772;BME280;59606;52.138;5.424;2024-02-28T08:51:01;102255.63;;;3.95;100.00
71772;BME280;59606;52.138;5.424;2024-02-28T08:53:29;102257.34;;;3.97;100.00
71772;BME280;59606;52.138;5.424;2024-02-28T08:55:58;102253.91;;;3.98;100.00
71772;BME280;59606;52.138;5.424;2024-02-28T08:58:29;102255.63;;;4.03;100.00
71772;BME280;59606;52.138;5.424;2024-02-28T09:00:56;102260.75;;;4.07;100.00
71772;BME280;59606;52.138;5.424;2024-02-28T09:03:31;102251.25;;;4.12;100.00
71772;BME280;59606;52.138;5.424;2024-02-28T09:06:00;102252.94;;;4.18;100.00
71772;BME280;59606;52.138;5.424;2024-02-28T09:08:29;102251.19;;;4.24;100.00
71772;BME280;59606;52.138;5.424;2024-02-28T09:10:55;102240.00;;;4.30;100.00
71772;BME280;59606;52.138;5.424;2024-02-28T09:13:22;102240.81;;;4.37;100.00
71772;BME280;59606;52.138;5.424;2024-02-28T09:15:50;102239.03;;;4.43;100.00
71772;BME280;59606;52.138;5.424;2024-02-28T09:18:20;102237.28;;;4.48;100.00
71772;BME280;59606;52.138;5.424;2024-02-28T09:20:48;102227.78;;;4.57;100.00
71772;BME280;59606;52.138;5.424;2024-02-28T09:23:15;102234.56;;;4.65;100.00
71772;BME280;59606;52.138;5.424;2024-02-28T09:25:44;102231.06;;;4.72;100.00
71772;BME280;59606;52.138;5.424;2024-02-28T09:28:11;102237.06;;;4.76;100.00
71772;BME280;59606;52.138;5.424;2024-02-28T09:30:40;102245.63;;;4.81;100.00
71772;BME280;59606;52.138;5.424;2024-02-28T09:33:17;102247.31;;;4.87;100.00
71772;BME280;59606;52.138;5.424;2024-02-28T09:35:46;102235.25;;;4.90;100.00
71772;BME280;59606;52.138;5.424;2024-02-28T09:38:15;102236.00;;;5.00;100.00
71772;BME280;59606;52.138;5.424;2024-02-28T09:40:46;102245.41;;;5.06;100.00
71772;BME280;59606;52.138;5.424;2024-02-28T09:43:23;102241.03;;;5.12;100.00
71772;BME280;59606;52.138;5.424;2024-02-28T09:45:58;102243.59;;;5.15;100.00
71772;BME280;59606;52.138;5.424;2024-02-28T09:48:29;102239.25;;;5.19;100.00
71772;BME280;59606;52.138;5.424;2024-02-28T09:50:57;102241.78;;;5.25;100.00
71772;BME280;59606;52.138;5.424;2024-02-28T09:53:28;102240.00;;;5.33;100.00
71772;BME280;59606;52.138;5.424;2024-02-28T09:55:55;102253.69;;;5.41;100.00
71772;BME280;59606;52.138;5.424;2024-02-28T09:58:22;102251.03;;;5.46;100.00
71772;BME280;59606;52.138;5.424;2024-02-28T10:00:50;102248.41;;;5.54;100.00
71772;BME280;59606;52.138;5.424;2024-02-28T10:03:21;102251.66;;;5.66;100.00
71772;BME280;59606;52.138;5.424;2024-02-28T10:05:49;102258.44;;;5.77;100.00
71772;BME280;59606;52.138;5.424;2024-02-28T10:08:17;102258.41;;;5.80;100.00
71772;BME280;59606;52.138;5.424;2024-02-28T10:10:50;102261.81;;;5.85;100.00
71772;BME280;59606;52.138;5.424;2024-02-28T10:13:23;102263.47;;;5.94;100.00
71772;BME280;59606;52.138;5.424;2024-02-28T10:15:51;102262.56;;;5.96;100.00
71772;BME280;59606;52.138;5.424;2024-02-28T10:18:26;102261.59;;;6.03;100.00
71772;BME280;59606;52.138;5.424;2024-02-28T10:20:53;102254.59;;;6.11;100.00
71772;BME280;59606;52.138;5.424;2024-02-28T10:23:23;102256.25;;;6.16;100.00
71772;BME280;59606;52.138;5.424;2024-02-28T10:25:53;102263.09;;;6.20;100.00
71772;BME280;59606;52.138;5.424;2024-02-28T10:28:23;102252.66;;;6.26;100.00
71772;BME280;59606;52.138;5.424;2024-02-28T10:30:51;102256.00;;;6.35;100.00
71772;BME280;59606;52.138;5.424;2024-02-28T10:33:27;102255.84;;;6.45;100.00
71772;BME280;59606;52.138;5.424;2024-02-28T10:35:59;102254.78;;;6.58;100.00
71772;BME280;59606;52.138;5.424;2024-02-28T10:38:27;102250.38;;;6.65;100.00
71772;BME280;59606;52.138;5.424;2024-02-28T10:40:55;102263.28;;;6.66;100.00
71772;BME280;59606;52.138;5.424;2024-02-28T10:43:27;102261.53;;;6.68;100.00
71772;BME280;59606;52.138;5.424;2024-02-28T10:45:58;102256.28;;;6.73;100.00
71772;BME280;59606;52.138;5.424;2024-02-28T10:48:28;102253.63;;;6.77;100.00
71772;BME280;59606;52.138;5.424;2024-02-28T10:50:56;102247.53;;;6.80;100.00
71772;BME280;59606;52.138;5.424;2024-02-28T10:53:37;102246.53;;;6.87;100.00
71772;BME280;59606;52.138;5.424;2024-02-28T10:56:09;102246.38;;;6.98;100.00
71772;BME280;59606;52.138;5.424;2024-02-28T10:58:43;102235.88;;;7.04;100.00
71772;BME280;59606;52.138;5.424;2024-02-28T11:01:13;102240.00;;;7.16;100.00
71772;BME280;59606;52.138;5.424;2024-02-28T11:03:41;102237.28;;;7.23;100.00
71772;BME280;59606;52.138;5.424;2024-02-28T11:06:21;102232.69;;;7.38;100.00
71772;BME280;59606;52.138;5.424;2024-02-28T11:08:49;102229.06;;;7.48;100.00
71772;BME280;59606;52.138;5.424;2024-02-28T11:11:21;102227.03;;;7.61;100.00
71772;BME280;59606;52.138;5.424;2024-02-28T11:13:55;102222.47;;;7.73;100.00
71772;BME280;59606;52.138;5.424;2024-02-28T11:16:26;102224.03;;;7.80;100.00
71772;BME280;59606;52.138;5.424;2024-02-28T11:18:55;102225.66;;;7.86;100.00
71772;BME280;59606;52.138;5.424;2024-02-28T11:21:26;102223.00;;;7.89;100.00
71772;BME280;59606;52.138;5.424;2024-02-28T11:23:57;102225.78;;;7.82;100.00
71772;BME280;59606;52.138;5.424;2024-02-28T11:26:25;102225.78;;;7.82;100.00
71772;BME280;59606;52.138;5.424;2024-02-28T11:28:54;102216.19;;;7.85;100.00
71772;BME280;59606;52.138;5.424;2024-02-28T11:31:21;102217.84;;;7.88;100.00
71772;BME280;59606;52.138;5.424;2024-02-28T11:33:48;102218.72;;;7.87;100.00
71772;BME280;59606;52.138;5.424;2024-02-28T11:36:15;102220.53;;;7.85;100.00
71772;BME280;59606;52.138;5.424;2024-02-28T11:38:41;102221.44;;;7.82;100.00
71772;BME280;59606;52.138;5.424;2024-02-28T11:41:08;102218.00;;;7.80;100.00
71772;BME280;59606;52.138;5.424;2024-02-28T11:43:34;102214.59;;;7.78;100.00
71772;BME280;59606;52.138;5.424;2024-02-28T11:46:17;102214.69;;;7.73;100.00
71772;BME280;59606;52.138;5.424;2024-02-28T11:48:44;102218.97;;;7.76;100.00
71772;BME280;59606;52.138;5.424;2024-02-28T11:51:13;102210.22;;;7.80;100.00
71772;BME280;59606;52.138;5.424;2024-02-28T11:53:39;102207.56;;;7.85;100.00
71772;BME280;59606;52.138;5.424;2024-02-28T11:56:07;102211.84;;;7.84;100.00
71772;BME280;59606;52.138;5.424;2024-02-28T11:58:34;102210.94;;;7.87;100.00
71772;BME280;59606;52.138;5.424;2024-02-28T12:01:02;102205.75;;;7.88;100.00
71772;BME280;59606;52.138;5.424;2024-02-28T12:03:29;102203.94;;;7.92;100.00
71772;BME280;59606;52.138;5.424;2024-02-28T12:05:56;102199.53;;;7.95;100.00
71772;BME280;59606;52.138;5.424;2024-02-28T12:08:23;102197.72;;;7.99;100.00
71772;BME280;59606;52.138;5.424;2024-02-28T12:10:54;102194.16;;;8.03;100.00
71772;BME280;59606;52.138;5.424;2024-02-28T12:13:22;102187.16;;;8.07;100.00
71772;BME280;59606;52.138;5.424;2024-02-28T12:15:49;102185.19;;;8.16;100.00
71772;BME280;59606;52.138;5.424;2024-02-28T12:18:17;102184.16;;;8.23;100.00
71772;BME280;59606;52.138;5.424;2024-02-28T12:20:44;102184.03;;;8.28;100.00
71772;BME280;59606;52.138;5.424;2024-02-28T12:23:18;102185.72;;;8.31;100.00
71772;BME280;59606;52.138;5.424;2024-02-28T12:25:45;102183.09;;;8.32;100.00
71772;BME280;59606;52.138;5.424;2024-02-28T12:28:14;102182.09;;;8.39;100.00
71772;BME280;59606;52.138;5.424;2024-02-28T12:30:42;102184.44;;;8.50;100.00
71772;BME280;59606;52.138;5.424;2024-02-28T12:33:10;102185.13;;;8.57;100.00
71772;BME280;59606;52.138;5.424;2024-02-28T12:35:38;102193.63;;;8.63;100.00
71772;BME280;59606;52.138;5.424;2024-02-28T12:38:05;102176.97;;;8.72;100.00
71772;BME280;59606;52.138;5.424;2024-02-28T12:40:32;102182.81;;;8.80;100.00
71772;BME280;59606;52.138;5.424;2024-02-28T12:42:59;102182.59;;;8.88;100.00
71772;BME280;59606;52.138;5.424;2024-02-28T12:45:28;102179.84;;;8.94;100.00
71772;BME280;59606;52.138;5.424;2024-02-28T12:47:55;102182.44;;;8.94;100.00
71772;BME280;59606;52.138;5.424;2024-02-28T12:50:24;102180.00;;;8.88;100.00
71772;BME280;59606;52.138;5.424;2024-02-28T12:52:52;102172.34;;;8.82;100.00
71772;BME280;59606;52.138;5.424;2024-02-28T12:55:21;102179.38;;;8.78;100.00
71772;BME280;59606;52.138;5.424;2024-02-28T12:57:50;102173.34;;;8.78;100.00